Terminal Aerodrome Forecast
Issued by NWS Green Bay, WI

Home | Current Version | Previous Version | Text Only | Print | Product List | Glossary On
Versions: 1 2 3 4 5 6 7 8 9 10 11 12 13 14 15 16 17 18 19 20 21 22 23 24 25 26 27 28 29 30 31 32 33 34 35 36 37
000
FTUS43 KGRB 250500
TAFGRB
TAF
KGRB 250530Z 2506/2606 19005KT P6SM SCT060 BKN120 WS010/24030KT
     FM251400 20010G18KT P6SM SCT045 BKN100
     FM252100 16010KT P6SM SCT040 BKN090 PROB30 2522/2602 6SM SHRA
      BKN040
     FM260300 19003KT 5SM -SHRA SCT020 BKN035=

USA.gov is the U.S. government's official web portal to all federal, state and local government web resources and services.